Casper Hojlund

Recruteur en chef - FC Midtjylland
4 Juin 2028
Dimanche
Processus

Personnalité

Adaptabilité (8) Ambition (14) Controverse (12) Loyauté (20) Pression (19) Professionnalisme (18) Sportivité (3) Tempérament (1)

Profil

Style d'entraînement Démocratique
Diplôme Continental C
Détermination 13
Gestion des joueurs 8
Motivation 5
Discipline 5
Satisfaction professionnelle
100%
Fatigue
0%
Rôle Recruteur en chef
Salaire 17.9K p/s
Contrat 14.03.2030

Performance

Comportement Bon
Efficacité de l'entraînement
49%
Développement des joueurs
60%
Prévention des blessures
70%
Mise en place tactique
65%

Événements récents

A évalué un joueur maintenant
A présenté un dossier au conseil maintenant

Suivi en cours

111
Joueur Club Statut Capacité Confiance Observé Dernière observation Dernier vote
Malik Mothersille Stockport County Perdu 120 / 122 40% 4 01.06.2028 -
Artem Slesar Viborg Rapport prêt 109 / 114 67% 1 01.06.2028 -
Karim Benzema Rapport prêt 148 / 148 67% 1 01.06.2028 -
Sebastian Mailat Millonarios Rapport prêt 118 / 118 67% 1 01.06.2028 -
Alberto Soro Belgrano Rapport prêt 118 / 118 66% 1 01.06.2028 -
Javi Ontiveros Cádiz Perdu 126 / 133 40% 1 01.06.2028 -
Vegard Erlien Valladolid Actif 122 / 120 40% 1 01.06.2028 -
Duckens Nazon RC Strasbourg Actif 115 / 115 67% 1 17.01.2028 Approuver
Keny Arroyo Cruzeiro Actif 135 / 122 40% 1 04.01.2028 -
Luis Sinisterra Cruzeiro Actif 149 / 143 40% 1 04.01.2028 -
Heung-Min Son Millonarios Actif 151 / 151 68% 1 01.01.2028 Approuver
Denis Bouanga Nacional Actif 134 / 134 67% 1 01.01.2028 Approuver
Seedy Jatta Sturm Graz Actif 118 / 122 67% 1 01.01.2028 Approuver
Mateo Lizondo Colón Actif 98 / 100 40% 2 27.08.2027 -
Mateo Peralta Danubio Actif 100 / 120 40% 1 27.08.2027 -
George Paaku Hearts of Oak Actif 98 / 94 40% 1 27.08.2027 -
Pablo Suárez Rentistas Actif 96 / 112 40% 2 26.08.2027 -
Ian Wisdom Sporting Cristal Actif 94 / 110 40% 1 26.08.2027 -
Manuel Kissanga Inter Allies Actif 89 / 96 40% 1 26.08.2027 -
Vadim Arutyunyan Dnepr Mogilev Actif 92 / 92 40% 1 25.08.2027 -
Musa Malik Ikorodu City Actif 93 / 93 40% 1 24.08.2027 -
Afriyie Sulemana Hasaacas Actif 104 / 98 40% 1 23.08.2027 -
Teo Rodríguez Pagano San Lorenzo Actif 104 / 123 40% 1 23.08.2027 -
Rafael Vargas Cortulua Actif 78 / 105 40% 1 23.08.2027 -
Elias Achouri San Diego Football Club Actif 136 / 130 40% 1 21.08.2027 -
Imran Oulad Omar Dinamo Batumi Actif 129 / 112 40% 1 21.08.2027 -
Dany Mota Monza Actif 140 / 143 40% 5 20.08.2027 -
Kian Fitz-Jim Torino Actif 144 / 140 40% 1 20.08.2027 -
Leonardo Sernicola Benevento Actif 119 / 117 40% 1 20.08.2027 -
Andrea Colpani Monza Actif 137 / 141 40% 1 18.08.2027 -
Boulaye Dia Lazio Actif 135 / 144 40% 1 18.08.2027 -
Armand Laurienté Sassuolo Actif 153 / 142 40% 2 17.08.2027 -
Álex Valle Como Actif 136 / 142 40% 1 17.08.2027 -
Tomáš Suslov Hellas Verona Actif 136 / 138 40% 1 17.08.2027 -
Idrissa Touré Monza Actif 149 / 137 40% 1 16.08.2027 -
Filippo Ranocchia Palermo Actif 140 / 137 40% 1 15.08.2027 -
Nicolás Paz San Martín SJ Actif 118 / 121 40% 1 15.08.2027 -
Cesare Casadei Torino Actif 126 / 140 40% 1 15.08.2027 -
Enrico Delprato Parma Actif 133 / 134 40% 1 12.08.2027 -
Samuele Angori Pisa Actif 125 / 147 40% 1 12.08.2027 -
Kelvin Flórez Udinese Actif 132 / 130 40% 1 11.08.2027 -
Emanuele Adamo Spezia Actif 131 / 119 40% 2 10.08.2027 -
Ethan Williams Peterborough United Actif 118 / 125 40% 3 09.08.2027 -
Ronald Swansea City Actif 135 / 139 40% 2 09.08.2027 -
Max Johnston Derby County Actif 133 / 139 40% 1 09.08.2027 -
Alfie Gilchrist West Bromwich Albion Actif 121 / 131 40% 1 09.08.2027 -
Brodie Spencer Oxford United Actif 136 / 127 40% 1 09.08.2027 -
Myles Peart-Harris Bristol Rovers Actif 120 / 130 40% 1 09.08.2027 -
Armando Dobra Chesterfield Actif 114 / 109 40% 3 08.08.2027 -
Todd Cantwell Blackburn Rovers Actif 143 / 128 40% 3 08.08.2027 -
Jack Rudoni Coventry City Actif 128 / 135 40% 2 07.08.2027 -
Isaak Davies Cardiff City Actif 118 / 116 40% 3 05.08.2027 -
Sorba Thomas Stoke City Actif 125 / 142 40% 3 05.08.2027 -
Saša Lukić Ipswich Town Actif 157 / 140 40% 1 05.08.2027 -
Mathias Jørgensen Blackburn Rovers Actif 136 / 114 40% 1 04.08.2027 -
Ali Ahmed Norwich City Actif 129 / 127 40% 1 04.08.2027 -
Caspar Jander Southampton Actif 132 / 135 40% 1 03.08.2027 -
Jesús Vázquez Valencia Actif 132 / 138 40% 1 03.08.2027 -
Oladapo Afolayan Blackburn Rovers Actif 122 / 117 40% 1 03.08.2027 -
Tyrese Campbell Sheffield United Actif 123 / 122 40% 2 02.08.2027 -
Samuel Edozie Southampton Actif 123 / 137 40% 2 02.08.2027 -
Koki Saito Queens Park Rangers Actif 142 / 135 40% 2 31.07.2027 -
Tyler Goodrham Oxford United Actif 130 / 134 40% 1 30.07.2027 -
Florentino Luís Ipswich Town Actif 145 / 143 40% 1 27.07.2027 -
Milan van Ewijk Coventry City Actif 130 / 137 40% 1 27.07.2027 -
Sidiki Chérif Coventry City Actif 121 / 137 40% 1 26.07.2027 -
Joseph Opoku Swansea City Actif 115 / 124 40% 1 26.07.2027 -
Aaron Connolly Leyton Orient Actif 132 / 116 40% 1 24.07.2027 -
Wilfried Gnonto Leeds United Actif 150 / 135 40% 1 24.07.2027 -
Aaron Collins Milton Keynes Dons Actif 108 / 113 40% 3 23.07.2027 -
Kieran Dowell Hull City Actif 139 / 118 40% 1 22.07.2027 -
Alex Robertson Cardiff City Actif 116 / 129 40% 1 22.07.2027 -
Isaiah Jones Luton Town Actif 143 / 121 40% 2 21.07.2027 -
Aurèle Amenda Coventry City Actif 150 / 139 40% 1 20.07.2027 -
Brooke Norton-Cuffy Genoa Actif 143 / 140 40% 1 20.07.2027 -
Tomáš Rigo Stoke City Actif 139 / 130 40% 1 17.07.2027 -
Mohamed Belloumi Hull City Actif 151 / 147 40% 1 17.07.2027 -
Ar'jany Martha Rotherham United Actif 118 / 114 40% 2 16.07.2027 -
Mark Sykes Millwall Actif 129 / 132 40% 1 15.07.2027 -
Ryan Wintle Milton Keynes Dons Actif 128 / 123 40% 1 15.07.2027 -
Lewis Bate Stockport County Actif 118 / 123 40% 1 14.07.2027 -
Sam Bell Bristol City Actif 119 / 123 40% 2 11.07.2027 -
Ollie O'Neill Leyton Orient Actif 107 / 122 40% 1 11.07.2027 -
Patrick Maswanganyi Orlando Pirates Actif 110 / 120 40% 1 10.07.2027 -
Ben Wiles Milton Keynes Dons Actif 118 / 110 40% 1 10.07.2027 -
Luca Connell Barnsley Actif 113 / 107 40% 1 09.07.2027 -
Alex Lowry Wycombe Wanderers Actif 133 / 126 40% 1 08.07.2027 -
Kanya Fujimoto Birmingham Actif 123 / 125 40% 2 29.06.2027 -
Stiven Shpendi Empoli Actif 114 / 130 40% 1 29.06.2027 -
Rúben Rodrigues Bolton Wanderers Actif 129 / 111 40% 1 28.06.2027 -
Fred Onyedinma Bradford City Actif 124 / 125 40% 1 27.06.2027 -
Christian Saydee Wigan Athletic Actif 120 / 109 40% 1 23.06.2027 -
Sergio Rodelas Granada Actif 128 / 124 40% 1 23.06.2027 -
Gabriel Strefezza Palermo Actif 142 / 132 40% 1 21.06.2027 -
Dylan Levitt Leyton Orient Actif 117 / 112 40% 1 21.06.2027 -
Salah Mohsen El Masry Actif 128 / 109 40% 1 19.06.2027 -
Sipho Mbule Asante Kotoko Actif 123 / 111 40% 1 17.06.2027 -
Mathias Kvistgaarden Norwich City Actif 107 / 119 40% 1 15.06.2027 -
Chem Campbell Stevenage Actif 115 / 110 40% 1 06.06.2027 -
Sonny Carey Charlton Athletic Actif 111 / 117 40% 1 06.06.2027 -
Edoardo Soleri Sampdoria Actif 133 / 123 40% 1 02.06.2027 -
Soufiane Benjdida Malmo FF Actif 121 / 122 68% 1 01.06.2027 Approuver
Alexander Lyng SonderjyskE Actif 109 / 123 40% 1 24.08.2026 -
Donavan Phillip Colorado Rapids Actif 103 / 100 40% 1 21.08.2026 -
Ezekiel Kwame Alladoh Philadelphia Union Actif 127 / 123 40% 1 20.08.2026 -
Mikkel Kallesøe Aalborg Actif 99 / 99 58% 1 17.08.2026 -
Youssoufa Moukoko FC Copenhagen Actif 113 / 121 40% 1 17.08.2026 -
Marco Bruhn Hobro Actif 78 / 100 40% 1 14.08.2026 -
Lévy Néne FC Nordsjaelland Actif 116 / 116 40% 1 11.08.2026 -
Justin-Noël Kalumba Mallorca Actif 115 / 112 40% 1 03.08.2026 -
Thapelo Maseko FC Copenhagen Actif 116 / 124 40% 1 01.08.2026 -